sensor_id;sensor_type;location;lat;lon;timestamp;P1;durP1;ratioP1;P2;durP2;ratioP2
75716;SDS011;64333;50.138;14.332;2022-10-17T00:00:32;10.88;;;7.82;;
75716;SDS011;64333;50.138;14.332;2022-10-17T00:02:57;9.30;;;7.13;;
75716;SDS011;64333;50.138;14.332;2022-10-17T00:05:23;9.82;;;7.90;;
75716;SDS011;64333;50.138;14.332;2022-10-17T00:07:49;12.82;;;7.25;;
75716;SDS011;64333;50.138;14.332;2022-10-17T00:10:15;11.18;;;8.05;;
75716;SDS011;64333;50.138;14.332;2022-10-17T00:12:41;13.93;;;7.85;;
75716;SDS011;64333;50.138;14.332;2022-10-17T00:15:06;11.48;;;7.68;;
75716;SDS011;64333;50.138;14.332;2022-10-17T00:17:32;8.98;;;6.90;;
75716;SDS011;64333;50.138;14.332;2022-10-17T00:19:58;11.15;;;8.20;;
75716;SDS011;64333;50.138;14.332;2022-10-17T00:22:24;13.27;;;8.45;;
75716;SDS011;64333;50.138;14.332;2022-10-17T00:24:50;9.65;;;7.03;;
75716;SDS011;64333;50.138;14.332;2022-10-17T00:27:16;10.00;;;8.20;;
75716;SDS011;64333;50.138;14.332;2022-10-17T00:29:41;15.82;;;8.82;;
75716;SDS011;64333;50.138;14.332;2022-10-17T00:32:06;13.85;;;9.48;;
75716;SDS011;64333;50.138;14.332;2022-10-17T00:34:32;17.33;;;10.63;;
75716;SDS011;64333;50.138;14.332;2022-10-17T00:36:57;12.98;;;9.27;;
75716;SDS011;64333;50.138;14.332;2022-10-17T00:39:23;20.65;;;13.02;;
75716;SDS011;64333;50.138;14.332;2022-10-17T00:41:48;24.17;;;14.80;;
75716;SDS011;64333;50.138;14.332;2022-10-17T00:46:57;23.30;;;14.25;;
75716;SDS011;64333;50.138;14.332;2022-10-17T00:49:27;25.80;;;14.93;;
75716;SDS011;64333;50.138;14.332;2022-10-17T00:51:58;23.48;;;14.02;;
75716;SDS011;64333;50.138;14.332;2022-10-17T00:54:26;19.90;;;13.35;;
75716;SDS011;64333;50.138;14.332;2022-10-17T00:56:55;28.75;;;16.48;;
75716;SDS011;64333;50.138;14.332;2022-10-17T00:59:21;25.85;;;16.13;;
75716;SDS011;64333;50.138;14.332;2022-10-17T01:02:31;30.60;;;15.25;;
75716;SDS011;64333;50.138;14.332;2022-10-17T01:04:40;33.50;;;15.93;;
75716;SDS011;64333;50.138;14.332;2022-10-17T01:07:08;31.55;;;16.02;;
75716;SDS011;64333;50.138;14.332;2022-10-17T01:09:34;64.93;;;16.38;;
75716;SDS011;64333;50.138;14.332;2022-10-17T01:12:06;120.80;;;20.88;;
75716;SDS011;64333;50.138;14.332;2022-10-17T01:33:29;46.70;;;14.50;;
75716;SDS011;64333;50.138;14.332;2022-10-17T01:38:44;17.70;;;11.13;;
75716;SDS011;64333;50.138;14.332;2022-10-17T01:43:54;17.20;;;11.13;;
75716;SDS011;64333;50.138;14.332;2022-10-17T01:46:27;20.90;;;12.52;;
75716;SDS011;64333;50.138;14.332;2022-10-17T01:49:05;17.65;;;12.25;;
75716;SDS011;64333;50.138;14.332;2022-10-17T01:51:37;18.98;;;11.32;;
75716;SDS011;64333;50.138;14.332;2022-10-17T01:56:48;15.73;;;11.85;;
75716;SDS011;64333;50.138;14.332;2022-10-17T01:59:24;17.30;;;10.57;;
75716;SDS011;64333;50.138;14.332;2022-10-17T02:01:55;22.52;;;14.00;;
75716;SDS011;64333;50.138;14.332;2022-10-17T02:04:22;19.30;;;12.25;;
75716;SDS011;64333;50.138;14.332;2022-10-17T02:06:49;24.17;;;13.43;;
75716;SDS011;64333;50.138;14.332;2022-10-17T02:09:19;34.60;;;12.15;;
75716;SDS011;64333;50.138;14.332;2022-10-17T02:12:30;44.13;;;12.20;;
75716;SDS011;64333;50.138;14.332;2022-10-17T02:17:34;30.05;;;12.52;;
75716;SDS011;64333;50.138;14.332;2022-10-17T02:22:54;70.43;;;16.35;;
75716;SDS011;64333;50.138;14.332;2022-10-17T02:25:45;121.95;;;21.00;;
75716;SDS011;64333;50.138;14.332;2022-10-17T02:29:01;41.97;;;13.68;;
75716;SDS011;64333;50.138;14.332;2022-10-17T02:33:41;114.63;;;18.80;;
75716;SDS011;64333;50.138;14.332;2022-10-17T02:36:10;82.90;;;16.67;;
75716;SDS011;64333;50.138;14.332;2022-10-17T02:38:39;90.95;;;16.58;;
75716;SDS011;64333;50.138;14.332;2022-10-17T02:41:06;116.70;;;16.40;;
75716;SDS011;64333;50.138;14.332;2022-10-17T02:43:37;107.18;;;16.13;;
75716;SDS011;64333;50.138;14.332;2022-10-17T02:46:03;39.80;;;14.15;;
75716;SDS011;64333;50.138;14.332;2022-10-17T02:48:35;91.47;;;19.50;;
75716;SDS011;64333;50.138;14.332;2022-10-17T02:51:12;81.57;;;15.30;;
75716;SDS011;64333;50.138;14.332;2022-10-17T02:56:20;97.03;;;17.83;;
75716;SDS011;64333;50.138;14.332;2022-10-17T02:58:47;122.82;;;19.83;;
75716;SDS011;64333;50.138;14.332;2022-10-17T03:01:17;153.75;;;21.15;;
75716;SDS011;64333;50.138;14.332;2022-10-17T03:03:43;114.97;;;18.95;;
75716;SDS011;64333;50.138;14.332;2022-10-17T03:06:09;104.60;;;15.85;;
75716;SDS011;64333;50.138;14.332;2022-10-17T03:08:34;75.05;;;16.05;;
75716;SDS011;64333;50.138;14.332;2022-10-17T03:10:59;96.47;;;16.83;;
75716;SDS011;64333;50.138;14.332;2022-10-17T03:13:25;118.50;;;17.48;;
75716;SDS011;64333;50.138;14.332;2022-10-17T03:15:50;89.82;;;17.17;;
75716;SDS011;64333;50.138;14.332;2022-10-17T03:18:15;115.38;;;17.23;;
75716;SDS011;64333;50.138;14.332;2022-10-17T03:20:41;130.27;;;18.83;;
75716;SDS011;64333;50.138;14.332;2022-10-17T03:23:06;108.30;;;16.42;;
75716;SDS011;64333;50.138;14.332;2022-10-17T03:25:31;100.57;;;18.17;;
75716;SDS011;64333;50.138;14.332;2022-10-17T03:27:58;117.50;;;19.50;;
75716;SDS011;64333;50.138;14.332;2022-10-17T03:30:27;160.38;;;23.85;;
75716;SDS011;64333;50.138;14.332;2022-10-17T03:32:52;138.30;;;23.40;;
75716;SDS011;64333;50.138;14.332;2022-10-17T03:35:18;104.25;;;21.48;;
75716;SDS011;64333;50.138;14.332;2022-10-17T03:37:43;88.25;;;19.35;;
75716;SDS011;64333;50.138;14.332;2022-10-17T03:40:09;93.55;;;19.25;;
75716;SDS011;64333;50.138;14.332;2022-10-17T03:42:34;82.90;;;18.80;;
75716;SDS011;64333;50.138;14.332;2022-10-17T03:45:00;102.15;;;18.90;;
75716;SDS011;64333;50.138;14.332;2022-10-17T03:47:26;141.43;;;22.05;;
75716;SDS011;64333;50.138;14.332;2022-10-17T03:49:52;136.10;;;23.70;;
75716;SDS011;64333;50.138;14.332;2022-10-17T03:52:18;116.90;;;21.65;;
75716;SDS011;64333;50.138;14.332;2022-10-17T03:54:43;88.30;;;20.15;;
75716;SDS011;64333;50.138;14.332;2022-10-17T03:57:09;66.07;;;18.75;;
75716;SDS011;64333;50.138;14.332;2022-10-17T03:59:34;50.50;;;18.45;;
75716;SDS011;64333;50.138;14.332;2022-10-17T04:01:59;42.60;;;19.38;;
75716;SDS011;64333;50.138;14.332;2022-10-17T04:04:25;34.20;;;16.35;;
75716;SDS011;64333;50.138;14.332;2022-10-17T04:06:50;42.25;;;17.95;;
75716;SDS011;64333;50.138;14.332;2022-10-17T04:09:15;37.83;;;18.92;;
75716;SDS011;64333;50.138;14.332;2022-10-17T04:11:41;30.17;;;17.02;;
75716;SDS011;64333;50.138;14.332;2022-10-17T04:14:06;40.05;;;19.38;;
75716;SDS011;64333;50.138;14.332;2022-10-17T04:16:32;35.78;;;18.90;;
75716;SDS011;64333;50.138;14.332;2022-10-17T04:18:57;34.92;;;18.65;;
75716;SDS011;64333;50.138;14.332;2022-10-17T04:21:24;36.92;;;18.88;;
75716;SDS011;64333;50.138;14.332;2022-10-17T04:23:56;34.08;;;18.40;;
75716;SDS011;64333;50.138;14.332;2022-10-17T04:26:23;35.78;;;20.63;;
75716;SDS011;64333;50.138;14.332;2022-10-17T04:28:49;58.45;;;31.65;;
75716;SDS011;64333;50.138;14.332;2022-10-17T04:31:15;52.50;;;27.88;;
75716;SDS011;64333;50.138;14.332;2022-10-17T04:33:40;34.88;;;18.80;;
75716;SDS011;64333;50.138;14.332;2022-10-17T04:36:06;31.38;;;19.13;;
75716;SDS011;64333;50.138;14.332;2022-10-17T04:38:35;33.80;;;17.52;;
75716;SDS011;64333;50.138;14.332;2022-10-17T04:41:01;27.83;;;17.30;;
75716;SDS011;64333;50.138;14.332;2022-10-17T04:43:29;29.67;;;17.65;;
75716;SDS011;64333;50.138;14.332;2022-10-17T04:45:59;28.70;;;17.50;;
75716;SDS011;64333;50.138;14.332;2022-10-17T04:48:25;35.58;;;17.08;;
75716;SDS011;64333;50.138;14.332;2022-10-17T04:51:02;79.38;;;18.50;;
75716;SDS011;64333;50.138;14.332;2022-10-17T04:53:33;245.90;;;31.95;;
75716;SDS011;64333;50.138;14.332;2022-10-17T04:56:00;165.95;;;28.85;;
75716;SDS011;64333;50.138;14.332;2022-10-17T04:58:29;198.70;;;31.83;;
75716;SDS011;64333;50.138;14.332;2022-10-17T05:00:54;159.88;;;33.20;;
75716;SDS011;64333;50.138;14.332;2022-10-17T05:03:20;186.98;;;35.25;;
75716;SDS011;64333;50.138;14.332;2022-10-17T05:05:46;144.90;;;29.65;;
75716;SDS011;64333;50.138;14.332;2022-10-17T05:08:11;343.13;;;43.25;;
75716;SDS011;64333;50.138;14.332;2022-10-17T05:10:38;359.20;;;46.28;;
75716;SDS011;64333;50.138;14.332;2022-10-17T05:13:05;278.42;;;39.75;;
75716;SDS011;64333;50.138;14.332;2022-10-17T05:15:31;363.75;;;46.45;;
75716;SDS011;64333;50.138;14.332;2022-10-17T05:17:57;346.85;;;47.95;;
75716;SDS011;64333;50.138;14.332;2022-10-17T05:20:22;391.33;;;54.17;;
75716;SDS011;64333;50.138;14.332;2022-10-17T05:22:48;233.65;;;46.13;;
75716;SDS011;64333;50.138;14.332;2022-10-17T05:25:13;270.10;;;40.85;;
75716;SDS011;64333;50.138;14.332;2022-10-17T05:27:39;258.38;;;35.92;;
75716;SDS011;64333;50.138;14.332;2022-10-17T05:30:04;259.33;;;35.17;;
75716;SDS011;64333;50.138;14.332;2022-10-17T05:32:30;210.15;;;33.08;;
75716;SDS011;64333;50.138;14.332;2022-10-17T05:34:56;126.00;;;27.85;;
75716;SDS011;64333;50.138;14.332;2022-10-17T05:37:21;271.77;;;38.45;;
75716;SDS011;64333;50.138;14.332;2022-10-17T05:39:47;158.48;;;31.77;;
75716;SDS011;64333;50.138;14.332;2022-10-17T05:42:12;133.05;;;27.80;;
75716;SDS011;64333;50.138;14.332;2022-10-17T05:44:37;121.40;;;28.75;;
75716;SDS011;64333;50.138;14.332;2022-10-17T05:47:05;95.38;;;30.35;;
75716;SDS011;64333;50.138;14.332;2022-10-17T05:49:30;80.20;;;29.25;;
75716;SDS011;64333;50.138;14.332;2022-10-17T05:51:56;72.18;;;26.98;;
75716;SDS011;64333;50.138;14.332;2022-10-17T05:54:21;69.03;;;26.80;;
75716;SDS011;64333;50.138;14.332;2022-10-17T05:56:50;53.85;;;21.48;;
75716;SDS011;64333;50.138;14.332;2022-10-17T05:59:16;57.80;;;20.98;;
75716;SDS011;64333;50.138;14.332;2022-10-17T06:01:42;65.20;;;23.42;;
75716;SDS011;64333;50.138;14.332;2022-10-17T06:04:07;124.65;;;24.85;;
75716;SDS011;64333;50.138;14.332;2022-10-17T06:06:32;62.42;;;21.05;;
75716;SDS011;64333;50.138;14.332;2022-10-17T06:09:00;57.92;;;17.55;;
75716;SDS011;64333;50.138;14.332;2022-10-17T06:11:26;44.63;;;14.75;;
75716;SDS011;64333;50.138;14.332;2022-10-17T06:13:51;35.05;;;14.73;;
75716;SDS011;64333;50.138;14.332;2022-10-17T06:16:16;56.25;;;16.73;;
75716;SDS011;64333;50.138;14.332;2022-10-17T06:18:42;90.60;;;18.60;;
75716;SDS011;64333;50.138;14.332;2022-10-17T06:21:08;40.85;;;15.90;;
75716;SDS011;64333;50.138;14.332;2022-10-17T06:23:35;37.40;;;15.90;;
75716;SDS011;64333;50.138;14.332;2022-10-17T06:26:01;48.55;;;17.85;;
75716;SDS011;64333;50.138;14.332;2022-10-17T06:28:27;33.83;;;15.90;;
75716;SDS011;64333;50.138;14.332;2022-10-17T06:30:53;26.92;;;14.25;;
75716;SDS011;64333;50.138;14.332;2022-10-17T06:33:18;34.60;;;13.85;;
75716;SDS011;64333;50.138;14.332;2022-10-17T06:35:55;31.13;;;14.85;;
75716;SDS011;64333;50.138;14.332;2022-10-17T06:38:21;35.60;;;14.98;;
75716;SDS011;64333;50.138;14.332;2022-10-17T06:40:47;30.83;;;14.23;;
75716;SDS011;64333;50.138;14.332;2022-10-17T06:43:12;43.65;;;15.68;;
75716;SDS011;64333;50.138;14.332;2022-10-17T06:45:38;46.60;;;13.65;;
75716;SDS011;64333;50.138;14.332;2022-10-17T06:48:04;55.22;;;15.00;;
75716;SDS011;64333;50.138;14.332;2022-10-17T06:50:29;67.72;;;16.40;;
75716;SDS011;64333;50.138;14.332;2022-10-17T06:52:55;35.42;;;14.38;;
75716;SDS011;64333;50.138;14.332;2022-10-17T06:55:20;49.58;;;14.98;;
75716;SDS011;64333;50.138;14.332;2022-10-17T06:57:45;42.80;;;15.27;;
75716;SDS011;64333;50.138;14.332;2022-10-17T07:00:11;40.05;;;15.13;;
75716;SDS011;64333;50.138;14.332;2022-10-17T07:02:36;40.28;;;13.65;;
75716;SDS011;64333;50.138;14.332;2022-10-17T07:05:02;47.08;;;15.00;;
75716;SDS011;64333;50.138;14.332;2022-10-17T07:07:29;51.33;;;15.07;;
75716;SDS011;64333;50.138;14.332;2022-10-17T07:09:56;55.92;;;15.10;;
75716;SDS011;64333;50.138;14.332;2022-10-17T07:12:22;52.58;;;13.65;;
75716;SDS011;64333;50.138;14.332;2022-10-17T07:14:48;34.75;;;13.40;;
75716;SDS011;64333;50.138;14.332;2022-10-17T07:17:14;57.80;;;12.75;;
75716;SDS011;64333;50.138;14.332;2022-10-17T07:19:40;50.08;;;13.30;;
75716;SDS011;64333;50.138;14.332;2022-10-17T07:22:07;46.67;;;14.52;;
75716;SDS011;64333;50.138;14.332;2022-10-17T07:24:33;41.92;;;13.07;;
75716;SDS011;64333;50.138;14.332;2022-10-17T07:26:58;41.08;;;12.45;;
75716;SDS011;64333;50.138;14.332;2022-10-17T07:29:24;31.27;;;13.13;;
75716;SDS011;64333;50.138;14.332;2022-10-17T07:31:49;46.70;;;14.57;;
75716;SDS011;64333;50.138;14.332;2022-10-17T07:34:15;44.47;;;14.73;;
75716;SDS011;64333;50.138;14.332;2022-10-17T07:36:41;49.58;;;17.90;;
75716;SDS011;64333;50.138;14.332;2022-10-17T07:39:07;49.40;;;18.27;;
75716;SDS011;64333;50.138;14.332;2022-10-17T07:41:32;29.55;;;17.30;;
75716;SDS011;64333;50.138;14.332;2022-10-17T07:43:57;31.85;;;15.55;;
75716;SDS011;64333;50.138;14.332;2022-10-17T07:46:23;53.72;;;16.27;;
75716;SDS011;64333;50.138;14.332;2022-10-17T07:48:48;44.03;;;15.27;;
75716;SDS011;64333;50.138;14.332;2022-10-17T07:51:13;32.85;;;14.90;;
75716;SDS011;64333;50.138;14.332;2022-10-17T07:53:40;23.88;;;15.25;;
75716;SDS011;64333;50.138;14.332;2022-10-17T07:56:07;21.55;;;15.50;;
75716;SDS011;64333;50.138;14.332;2022-10-17T07:58:35;21.00;;;16.60;;
75716;SDS011;64333;50.138;14.332;2022-10-17T08:01:02;21.42;;;16.23;;
75716;SDS011;64333;50.138;14.332;2022-10-17T08:03:29;20.35;;;16.55;;
75716;SDS011;64333;50.138;14.332;2022-10-17T08:05:58;23.48;;;17.27;;
75716;SDS011;64333;50.138;14.332;2022-10-17T08:08:24;26.23;;;19.55;;
75716;SDS011;64333;50.138;14.332;2022-10-17T08:10:50;25.60;;;19.42;;
75716;SDS011;64333;50.138;14.332;2022-10-17T08:13:15;27.10;;;21.08;;
75716;SDS011;64333;50.138;14.332;2022-10-17T08:15:41;23.95;;;19.85;;
75716;SDS011;64333;50.138;14.332;2022-10-17T08:18:06;25.73;;;20.10;;
75716;SDS011;64333;50.138;14.332;2022-10-17T08:20:31;27.05;;;18.92;;
75716;SDS011;64333;50.138;14.332;2022-10-17T08:22:57;28.13;;;21.65;;
75716;SDS011;64333;50.138;14.332;2022-10-17T08:25:22;25.33;;;20.65;;
75716;SDS011;64333;50.138;14.332;2022-10-17T08:27:48;26.33;;;19.48;;
75716;SDS011;64333;50.138;14.332;2022-10-17T08:30:13;28.20;;;21.83;;
75716;SDS011;64333;50.138;14.332;2022-10-17T08:32:39;27.23;;;22.15;;
75716;SDS011;64333;50.138;14.332;2022-10-17T08:35:04;28.25;;;22.67;;
75716;SDS011;64333;50.138;14.332;2022-10-17T08:37:30;28.25;;;23.48;;
75716;SDS011;64333;50.138;14.332;2022-10-17T08:39:56;28.65;;;21.73;;
75716;SDS011;64333;50.138;14.332;2022-10-17T08:42:41;27.85;;;21.83;;
75716;SDS011;64333;50.138;14.332;2022-10-17T08:45:23;28.65;;;21.15;;
75716;SDS011;64333;50.138;14.332;2022-10-17T08:47:52;25.83;;;21.23;;
75716;SDS011;64333;50.138;14.332;2022-10-17T08:55:48;28.88;;;21.98;;
75716;SDS011;64333;50.138;14.332;2022-10-17T08:58:27;24.17;;;20.52;;
75716;SDS011;64333;50.138;14.332;2022-10-17T09:12:15;28.83;;;23.73;;
75716;SDS011;64333;50.138;14.332;2022-10-17T09:22:59;29.15;;;23.45;;
75716;SDS011;64333;50.138;14.332;2022-10-17T09:25:39;30.05;;;23.83;;
75716;SDS011;64333;50.138;14.332;2022-10-17T09:28:13;29.42;;;23.55;;
75716;SDS011;64333;50.138;14.332;2022-10-17T09:33:27;32.17;;;24.10;;
75716;SDS011;64333;50.138;14.332;2022-10-17T09:35:57;29.77;;;24.30;;
75716;SDS011;64333;50.138;14.332;2022-10-17T09:38:24;30.13;;;23.83;;
75716;SDS011;64333;50.138;14.332;2022-10-17T09:41:02;26.55;;;23.65;;
75716;SDS011;64333;50.138;14.332;2022-10-17T09:43:27;27.15;;;22.92;;
75716;SDS011;64333;50.138;14.332;2022-10-17T09:49:05;27.65;;;22.50;;
75716;SDS011;64333;50.138;14.332;2022-10-17T09:51:41;26.75;;;22.58;;
75716;SDS011;64333;50.138;14.332;2022-10-17T09:54:32;28.45;;;22.77;;
75716;SDS011;64333;50.138;14.332;2022-10-17T09:59:38;27.35;;;21.85;;
75716;SDS011;64333;50.138;14.332;2022-10-17T10:02:25;25.88;;;22.05;;
75716;SDS011;64333;50.138;14.332;2022-10-17T10:07:23;25.15;;;21.90;;
75716;SDS011;64333;50.138;14.332;2022-10-17T10:09:49;24.08;;;21.55;;
75716;SDS011;64333;50.138;14.332;2022-10-17T10:12:20;25.42;;;22.08;;
75716;SDS011;64333;50.138;14.332;2022-10-17T10:14:45;23.52;;;20.02;;
75716;SDS011;64333;50.138;14.332;2022-10-17T10:20:23;25.42;;;22.13;;
75716;SDS011;64333;50.138;14.332;2022-10-17T10:23:15;26.15;;;22.25;;
75716;SDS011;64333;50.138;14.332;2022-10-17T10:25:55;25.40;;;22.77;;
75716;SDS011;64333;50.138;14.332;2022-10-17T10:28:29;24.02;;;21.38;;
75716;SDS011;64333;50.138;14.332;2022-10-17T10:30:59;23.13;;;19.95;;
75716;SDS011;64333;50.138;14.332;2022-10-17T10:33:28;25.05;;;21.80;;
75716;SDS011;64333;50.138;14.332;2022-10-17T10:35:59;24.40;;;21.83;;
75716;SDS011;64333;50.138;14.332;2022-10-17T10:38:27;28.30;;;22.40;;
75716;SDS011;64333;50.138;14.332;2022-10-17T10:40:55;25.92;;;21.25;;
75716;SDS011;64333;50.138;14.332;2022-10-17T10:43:30;23.60;;;20.52;;
75716;SDS011;64333;50.138;14.332;2022-10-17T10:46:06;27.27;;;22.98;;
75716;SDS011;64333;50.138;14.332;2022-10-17T10:48:48;29.30;;;24.55;;
75716;SDS011;64333;50.138;14.332;2022-10-17T10:54:04;24.73;;;20.77;;
75716;SDS011;64333;50.138;14.332;2022-10-17T10:56:41;26.15;;;21.88;;
75716;SDS011;64333;50.138;14.332;2022-10-17T10:59:25;25.00;;;21.40;;
75716;SDS011;64333;50.138;14.332;2022-10-17T11:07:44;25.17;;;20.85;;
75716;SDS011;64333;50.138;14.332;2022-10-17T11:10:24;22.77;;;20.42;;
75716;SDS011;64333;50.138;14.332;2022-10-17T11:13:04;24.00;;;21.05;;
75716;SDS011;64333;50.138;14.332;2022-10-17T11:18:25;24.05;;;20.00;;
75716;SDS011;64333;50.138;14.332;2022-10-17T11:21:05;23.25;;;19.95;;
75716;SDS011;64333;50.138;14.332;2022-10-17T11:23:40;25.75;;;21.38;;
75716;SDS011;64333;50.138;14.332;2022-10-17T11:26:12;24.77;;;21.17;;
75716;SDS011;64333;50.138;14.332;2022-10-17T11:28:49;28.45;;;22.58;;
75716;SDS011;64333;50.138;14.332;2022-10-17T11:31:16;25.45;;;21.63;;
75716;SDS011;64333;50.138;14.332;2022-10-17T11:34:19;24.08;;;20.92;;
75716;SDS011;64333;50.138;14.332;2022-10-17T11:36:45;23.55;;;20.75;;
75716;SDS011;64333;50.138;14.332;2022-10-17T11:39:17;25.42;;;20.67;;
75716;SDS011;64333;50.138;14.332;2022-10-17T11:41:48;24.60;;;21.75;;
75716;SDS011;64333;50.138;14.332;2022-10-17T11:49:36;24.38;;;20.02;;
75716;SDS011;64333;50.138;14.332;2022-10-17T11:54:58;22.50;;;20.17;;
75716;SDS011;64333;50.138;14.332;2022-10-17T12:08:16;24.88;;;20.40;;
75716;SDS011;64333;50.138;14.332;2022-10-17T12:15:51;22.90;;;18.97;;
75716;SDS011;64333;50.138;14.332;2022-10-17T12:18:17;22.90;;;19.75;;
75716;SDS011;64333;50.138;14.332;2022-10-17T12:20:42;24.33;;;19.75;;
75716;SDS011;64333;50.138;14.332;2022-10-17T12:23:26;22.75;;;19.00;;
75716;SDS011;64333;50.138;14.332;2022-10-17T12:25:53;23.88;;;19.88;;
75716;SDS011;64333;50.138;14.332;2022-10-17T12:33:47;21.33;;;18.58;;
75716;SDS011;64333;50.138;14.332;2022-10-17T12:46:54;22.42;;;18.42;;
75716;SDS011;64333;50.138;14.332;2022-10-17T12:57:39;21.60;;;17.58;;
75716;SDS011;64333;50.138;14.332;2022-10-17T13:02:39;20.10;;;17.95;;
75716;SDS011;64333;50.138;14.332;2022-10-17T13:05:16;19.65;;;17.50;;
75716;SDS011;64333;50.138;14.332;2022-10-17T13:07:48;19.70;;;17.60;;
75716;SDS011;64333;50.138;14.332;2022-10-17T13:10:20;21.42;;;18.27;;
75716;SDS011;64333;50.138;14.332;2022-10-17T13:12:48;21.52;;;18.63;;
75716;SDS011;64333;50.138;14.332;2022-10-17T13:15:16;21.10;;;18.45;;
75716;SDS011;64333;50.138;14.332;2022-10-17T13:17:43;20.98;;;17.13;;
75716;SDS011;64333;50.138;14.332;2022-10-17T13:20:19;24.75;;;18.08;;
75716;SDS011;64333;50.138;14.332;2022-10-17T13:22:49;20.02;;;17.30;;
75716;SDS011;64333;50.138;14.332;2022-10-17T13:25:15;20.98;;;18.23;;
75716;SDS011;64333;50.138;14.332;2022-10-17T13:27:42;21.00;;;17.02;;
75716;SDS011;64333;50.138;14.332;2022-10-17T13:30:50;18.58;;;15.90;;
75716;SDS011;64333;50.138;14.332;2022-10-17T13:32:58;23.52;;;18.27;;
75716;SDS011;64333;50.138;14.332;2022-10-17T13:35:32;21.17;;;16.80;;
75716;SDS011;64333;50.138;14.332;2022-10-17T13:38:02;19.85;;;17.20;;
75716;SDS011;64333;50.138;14.332;2022-10-17T13:40:31;22.02;;;17.80;;
75716;SDS011;64333;50.138;14.332;2022-10-17T13:43:04;21.08;;;17.52;;
75716;SDS011;64333;50.138;14.332;2022-10-17T13:45:43;19.80;;;16.90;;
75716;SDS011;64333;50.138;14.332;2022-10-17T13:48:25;22.58;;;17.05;;
75716;SDS011;64333;50.138;14.332;2022-10-17T13:50:53;19.98;;;16.40;;
75716;SDS011;64333;50.138;14.332;2022-10-17T14:01:16;19.60;;;16.77;;
75716;SDS011;64333;50.138;14.332;2022-10-17T14:03:43;22.38;;;17.58;;
75716;SDS011;64333;50.138;14.332;2022-10-17T14:06:11;22.40;;;16.25;;
75716;SDS011;64333;50.138;14.332;2022-10-17T14:08:59;23.42;;;18.02;;
75716;SDS011;64333;50.138;14.332;2022-10-17T14:11:31;19.90;;;15.50;;
75716;SDS011;64333;50.138;14.332;2022-10-17T14:13:59;20.40;;;15.75;;
75716;SDS011;64333;50.138;14.332;2022-10-17T14:16:32;22.83;;;15.73;;
75716;SDS011;64333;50.138;14.332;2022-10-17T14:19:00;20.63;;;16.25;;
75716;SDS011;64333;50.138;14.332;2022-10-17T14:21:25;22.27;;;16.73;;
75716;SDS011;64333;50.138;14.332;2022-10-17T14:24:13;18.52;;;15.38;;
75716;SDS011;64333;50.138;14.332;2022-10-17T14:26:51;19.73;;;15.13;;
75716;SDS011;64333;50.138;14.332;2022-10-17T14:32:02;18.30;;;15.23;;
75716;SDS011;64333;50.138;14.332;2022-10-17T14:34:32;21.08;;;15.38;;
75716;SDS011;64333;50.138;14.332;2022-10-17T14:36:59;18.60;;;15.00;;
75716;SDS011;64333;50.138;14.332;2022-10-17T14:39:26;18.83;;;14.93;;
75716;SDS011;64333;50.138;14.332;2022-10-17T14:41:52;23.52;;;14.63;;
75716;SDS011;64333;50.138;14.332;2022-10-17T14:44:28;17.52;;;14.10;;
75716;SDS011;64333;50.138;14.332;2022-10-17T14:46:57;17.55;;;13.73;;
75716;SDS011;64333;50.138;14.332;2022-10-17T14:49:32;18.42;;;14.07;;
75716;SDS011;64333;50.138;14.332;2022-10-17T14:54:41;19.33;;;13.82;;
75716;SDS011;64333;50.138;14.332;2022-10-17T14:59:48;18.83;;;13.75;;
75716;SDS011;64333;50.138;14.332;2022-10-17T15:02:13;19.52;;;14.45;;
75716;SDS011;64333;50.138;14.332;2022-10-17T15:04:39;19.95;;;13.38;;
75716;SDS011;64333;50.138;14.332;2022-10-17T15:07:04;19.73;;;14.77;;
75716;SDS011;64333;50.138;14.332;2022-10-17T15:09:30;17.95;;;14.50;;
75716;SDS011;64333;50.138;14.332;2022-10-17T15:11:58;20.63;;;14.93;;
75716;SDS011;64333;50.138;14.332;2022-10-17T15:14:26;18.75;;;13.52;;
75716;SDS011;64333;50.138;14.332;2022-10-17T15:16:51;20.67;;;15.20;;
75716;SDS011;64333;50.138;14.332;2022-10-17T15:19:17;19.20;;;13.75;;
75716;SDS011;64333;50.138;14.332;2022-10-17T15:21:42;18.27;;;13.48;;
75716;SDS011;64333;50.138;14.332;2022-10-17T15:24:07;19.05;;;13.68;;
75716;SDS011;64333;50.138;14.332;2022-10-17T15:26:33;19.50;;;14.27;;
75716;SDS011;64333;50.138;14.332;2022-10-17T15:28:59;18.10;;;14.32;;
75716;SDS011;64333;50.138;14.332;2022-10-17T15:31:25;22.25;;;14.73;;
75716;SDS011;64333;50.138;14.332;2022-10-17T15:33:52;19.60;;;13.43;;
75716;SDS011;64333;50.138;14.332;2022-10-17T15:38:45;19.42;;;12.80;;
75716;SDS011;64333;50.138;14.332;2022-10-17T15:41:11;22.63;;;15.88;;
75716;SDS011;64333;50.138;14.332;2022-10-17T15:43:37;23.55;;;16.73;;
75716;SDS011;64333;50.138;14.332;2022-10-17T15:46:02;22.67;;;14.95;;
75716;SDS011;64333;50.138;14.332;2022-10-17T15:48:28;22.02;;;16.30;;
75716;SDS011;64333;50.138;14.332;2022-10-17T15:50:55;22.75;;;14.82;;
75716;SDS011;64333;50.138;14.332;2022-10-17T15:53:21;22.10;;;16.10;;
75716;SDS011;64333;50.138;14.332;2022-10-17T15:55:47;23.83;;;16.02;;
75716;SDS011;64333;50.138;14.332;2022-10-17T15:58:15;21.77;;;15.50;;
75716;SDS011;64333;50.138;14.332;2022-10-17T16:00:42;23.48;;;15.18;;
75716;SDS011;64333;50.138;14.332;2022-10-17T16:03:09;23.10;;;15.95;;
75716;SDS011;64333;50.138;14.332;2022-10-17T16:05:34;24.33;;;15.88;;
75716;SDS011;64333;50.138;14.332;2022-10-17T16:08:00;25.67;;;17.27;;
75716;SDS011;64333;50.138;14.332;2022-10-17T16:10:25;26.33;;;18.05;;
75716;SDS011;64333;50.138;14.332;2022-10-17T16:12:51;25.70;;;17.63;;
75716;SDS011;64333;50.138;14.332;2022-10-17T16:15:21;25.25;;;17.65;;
75716;SDS011;64333;50.138;14.332;2022-10-17T16:17:49;26.88;;;18.13;;
75716;SDS011;64333;50.138;14.332;2022-10-17T16:20:18;21.50;;;14.50;;
75716;SDS011;64333;50.138;14.332;2022-10-17T16:22:44;19.38;;;13.85;;
75716;SDS011;64333;50.138;14.332;2022-10-17T16:25:15;16.83;;;12.13;;
75716;SDS011;64333;50.138;14.332;2022-10-17T16:27:43;16.73;;;11.80;;
75716;SDS011;64333;50.138;14.332;2022-10-17T16:30:13;28.23;;;14.60;;
75716;SDS011;64333;50.138;14.332;2022-10-17T16:32:39;24.42;;;15.48;;
75716;SDS011;64333;50.138;14.332;2022-10-17T16:35:04;18.48;;;12.73;;
75716;SDS011;64333;50.138;14.332;2022-10-17T16:37:31;18.33;;;11.55;;
75716;SDS011;64333;50.138;14.332;2022-10-17T16:39:56;15.82;;;11.77;;
75716;SDS011;64333;50.138;14.332;2022-10-17T16:42:22;15.27;;;10.93;;
75716;SDS011;64333;50.138;14.332;2022-10-17T16:44:48;17.88;;;12.65;;
75716;SDS011;64333;50.138;14.332;2022-10-17T16:47:15;18.00;;;12.25;;
75716;SDS011;64333;50.138;14.332;2022-10-17T16:49:43;19.10;;;12.48;;
75716;SDS011;64333;50.138;14.332;2022-10-17T16:52:08;19.58;;;12.32;;
75716;SDS011;64333;50.138;14.332;2022-10-17T16:54:34;16.15;;;11.27;;
75716;SDS011;64333;50.138;14.332;2022-10-17T16:57:00;17.83;;;12.38;;